»·PEaware :: AAL343 KBOI-KBIL

AAL343 :: KBOI-KBIL

FLIGHT INFORMATION

Flight Status: Arrived
Operator:
American Airlines
More flights by this operator :: More flights under this callsign
Pilot: James W. (12414)
Aircraft: BOEING 737-800
(B738)
More flights by this aircraft type
Origin: KBOI Boise Air Terminal/Gowen
United States
Destination: KBIL Billings Logan Intl
United States
More flights between these airports :: More routes between these airports
Route: +BOISE3 BOI NATZZ BYRCH CRAZI2
File this flight plan on PilotEdge
Remarks:
Altitude:
(Current/Filed)
350ft
Speed:
(Current/Filed)
500kts
Departed: 02-May-18 04:06 PM
Arrived: 02-May-18 05:14 PM
Distance/Time
Traveled:
354nm/1:08
Distance/Time
To Go:
Arrived

Flight Plot

Page will automatically refresh every two minutes.

Flight plan parsing failed; only flown route is shown


Map Options




Map Legend


Flown Route
Filed Route
Departure Airport
Arrival Airport
Navaid (VOR, NDB)
Fix

Horizontal Profiles

Position Reports

Time Latitude Longitude Heading Altitude Ground
Speed
02-May-18 15:40 43.566541 -116.218964 24 2878ft 0kts
02-May-18 15:41 43.566541 -116.218964 24 2878ft 0kts
02-May-18 15:42 43.566541 -116.218964 24 2879ft 0kts
02-May-18 15:43 43.566541 -116.218964 24 2879ft 0kts
02-May-18 15:44 43.566541 -116.218964 24 2879ft 0kts
02-May-18 15:45 43.566541 -116.218964 24 2879ft 0kts
02-May-18 15:46 43.566541 -116.218964 24 2879ft 0kts
02-May-18 15:47 43.566541 -116.218964 24 2879ft 0kts
02-May-18 15:48 43.566541 -116.218964 24 2879ft 0kts
02-May-18 15:49 43.566541 -116.218964 24 2879ft 0kts
02-May-18 15:50 43.566541 -116.218964 24 2879ft 0kts
02-May-18 15:51 43.566541 -116.218964 24 2879ft 0kts
02-May-18 15:52 43.566541 -116.218964 24 2879ft 0kts
02-May-18 15:53 43.566541 -116.218964 24 2879ft 0kts
02-May-18 15:54 43.566541 -116.218964 24 2879ft 0kts
02-May-18 15:55 43.566541 -116.218964 24 2879ft 0kts
02-May-18 15:56 43.566215 -116.219292 81 2879ft 2kts
02-May-18 15:57 43.566234 -116.219502 116 2879ft 0kts
02-May-18 15:58 43.566234 -116.219502 116 2879ft 0kts
02-May-18 15:59 43.566234 -116.219502 116 2878ft 0kts
02-May-18 16:00 43.564676 -116.216640 140 2879ft 16kts
02-May-18 16:01 43.561771 -116.208388 116 2879ft 26kts
02-May-18 16:02 43.559529 -116.202159 148 2879ft 0kts
02-May-18 16:03 43.559487 -116.202130 155 2879ft 0kts
02-May-18 16:04 43.558854 -116.203458 293 2879ft 4kts
02-May-18 16:05 43.573731 -116.247834 296 3420ft 207kts
02-May-18 16:06 43.596852 -116.333843 291 5358ft 264kts
02-May-18 16:07 43.630202 -116.423470 327 7363ft 273kts
02-May-18 16:08 43.704750 -116.423135 13 9414ft 284kts
02-May-18 16:09 43.781348 -116.389150 44 11428ft 316kts
02-May-18 16:10 43.781675 -116.267211 104 13603ft 360kts
02-May-18 16:11 43.752224 -116.128304 104 15642ft 388kts
02-May-18 16:12 43.720642 -115.980529 103 17669ft 417kts
02-May-18 16:13 43.686699 -115.822965 103 19687ft 438kts
02-May-18 16:14 43.651273 -115.659892 103 21689ft 450kts
02-May-18 16:15 43.614736 -115.493066 102 23685ft 461kts
02-May-18 16:16 43.588927 -115.325226 80 25482ft 460kts
02-May-18 16:17 43.643833 -115.173601 49 27503ft 446kts
02-May-18 16:18 43.716641 -115.036421 50 29462ft 447kts
02-May-18 16:19 43.788964 -114.898819 51 31286ft 446kts
02-May-18 16:20 43.860532 -114.762888 51 33087ft 441kts
02-May-18 16:21 43.931109 -114.629146 50 34635ft 436kts
02-May-18 16:22 44.001258 -114.496488 50 35011ft 432kts
02-May-18 16:23 44.071739 -114.363515 50 35005ft 433kts
02-May-18 16:24 44.137996 -114.238683 51 35003ft 432kts
02-May-18 16:25 44.208913 -114.105402 50 35001ft 433kts
02-May-18 16:26 44.280376 -113.971361 50 35003ft 433kts
02-May-18 16:27 44.351923 -113.837473 50 35002ft 432kts
02-May-18 16:28 44.423079 -113.704540 50 35000ft 432kts
02-May-18 16:29 44.494695 -113.571062 50 35001ft 432kts
02-May-18 16:30 44.565984 -113.438462 49 35017ft 431kts
02-May-18 16:31 44.636210 -113.308078 50 35026ft 432kts
02-May-18 16:32 44.708407 -113.174248 50 35015ft 432kts
02-May-18 16:33 44.780777 -113.040461 50 35010ft 433kts
02-May-18 16:34 44.852854 -112.907477 50 35003ft 424kts
02-May-18 16:35 44.923478 -112.777408 50 35006ft 417kts
02-May-18 16:36 44.993224 -112.649174 49 35007ft 423kts
02-May-18 16:37 45.066036 -112.515704 48 35004ft 438kts
02-May-18 16:38 45.137509 -112.384950 48 35015ft 450kts
02-May-18 16:39 45.210981 -112.250682 49 35017ft 448kts
02-May-18 16:40 45.285805 -112.114220 49 35040ft 447kts
02-May-18 16:41 45.361950 -111.975648 48 35048ft 447kts
02-May-18 16:42 45.437784 -111.837916 48 35051ft 446kts
02-May-18 16:43 45.513973 -111.699837 48 35045ft 449kts
02-May-18 16:44 45.589929 -111.562402 48 33944ft 449kts
02-May-18 16:45 45.666513 -111.424120 48 31805ft 451kts
02-May-18 16:46 45.741583 -111.288757 49 29715ft 456kts
02-May-18 16:47 45.820029 -111.147679 49 27562ft 462kts
02-May-18 16:48 45.895285 -111.003720 63 25346ft 449kts
02-May-18 16:49 45.934189 -110.839795 69 23163ft 429kts
02-May-18 16:50 45.972041 -110.681077 69 20968ft 416kts
02-May-18 16:51 46.009032 -110.526914 69 18772ft 404kts
02-May-18 16:52 46.044498 -110.378672 69 17002ft 375kts
02-May-18 16:53 46.075992 -110.246463 70 17017ft 356kts
02-May-18 16:54 46.107057 -110.115512 70 17018ft 356kts
02-May-18 16:55 46.138812 -109.980911 70 16737ft 363kts
02-May-18 16:56 46.170449 -109.845998 70 16009ft 352kts
02-May-18 16:57 46.191648 -109.710502 99 16020ft 353kts
02-May-18 16:59 46.161049 -109.574723 108 14228ft 354kts
02-May-18 17:00 46.129493 -109.442576 108 12238ft 345kts
02-May-18 17:01 46.099504 -109.316254 109 10292ft 338kts
02-May-18 17:02 46.069591 -109.190349 109 8309ft 332kts
02-May-18 17:03 46.040916 -109.070088 110 7998ft 312kts
02-May-18 17:04 46.012922 -108.953229 110 7999ft 311kts
02-May-18 17:05 45.984915 -108.836882 110 7999ft 311kts
02-May-18 17:06 45.956443 -108.719190 110 7251ft 318kts
02-May-18 17:07 45.928301 -108.603275 110 5984ft 296kts
02-May-18 17:08 45.904810 -108.501807 108 5840ft 249kts
02-May-18 17:09 45.884710 -108.410574 108 4919ft 246kts
02-May-18 17:10 45.852298 -108.342563 187 4034ft 211kts
02-May-18 17:11 45.807557 -108.376637 235 4104ft 186kts
02-May-18 17:12 45.792396 -108.444528 279 4116ft 186kts
02-May-18 17:13 45.799190 -108.508759 300 3800ft 149kts
02-May-18 17:14 45.807606 -108.536952 242 3660ft 5kts
02-May-18 17:15 45.804810 -108.537947 182 3660ft 14kts

Navigation Log

Ident Type
Flight plan parsing failed, navigation log unavailable